createdAt,value
2019-04-16T00:00:02.315Z,0.00
2019-04-16T00:01:02.278Z,0.00
2019-04-16T00:02:02.333Z,0.00
2019-04-16T00:03:02.293Z,0.00
2019-04-16T00:04:02.306Z,0.00
2019-04-16T00:05:02.321Z,0.00
2019-04-16T00:06:02.304Z,0.00
2019-04-16T00:07:02.313Z,0.06
2019-04-16T00:08:02.318Z,0.40
2019-04-16T00:09:02.317Z,0.44
2019-04-16T00:10:02.305Z,0.00
2019-04-16T00:11:02.351Z,0.00
2019-04-16T00:12:02.304Z,0.00
2019-04-16T00:13:02.323Z,0.00
2019-04-16T00:14:03.486Z,0.00
2019-04-16T00:15:02.313Z,0.45
2019-04-16T00:16:02.322Z,0.11
2019-04-16T00:17:02.343Z,0.00
2019-04-16T00:18:02.337Z,0.00
2019-04-16T00:19:05.653Z,0.00
2019-04-16T00:20:05.663Z,0.00
2019-04-16T00:21:02.525Z,0.60
2019-04-16T00:22:02.340Z,0.40
2019-04-16T00:23:02.349Z,0.00
2019-04-16T00:24:02.314Z,0.00
2019-04-16T00:25:02.344Z,0.00
2019-04-16T00:26:02.303Z,0.00
2019-04-16T00:27:02.313Z,0.00
2019-04-16T00:28:02.317Z,0.00
2019-04-16T00:29:03.180Z,0.00
2019-04-16T00:30:04.862Z,0.00
2019-04-16T00:31:04.694Z,0.00
2019-04-16T00:32:02.350Z,0.00
2019-04-16T00:33:02.315Z,0.00
2019-04-16T00:34:02.328Z,0.00
2019-04-16T00:35:02.357Z,0.00
2019-04-16T00:36:02.345Z,0.00
2019-04-16T00:37:02.314Z,0.00
2019-04-16T00:38:02.369Z,0.00
2019-04-16T00:39:02.328Z,0.00
2019-04-16T00:40:02.332Z,0.00
2019-04-16T00:41:02.387Z,0.00
2019-04-16T00:42:02.339Z,0.00
2019-04-16T00:43:02.337Z,0.00
2019-04-16T00:44:02.332Z,0.00
2019-04-16T00:45:02.321Z,0.00
2019-04-16T00:46:02.322Z,0.09
2019-04-16T00:47:02.395Z,0.22
2019-04-16T00:48:02.334Z,0.01
2019-04-16T00:49:02.343Z,0.00
2019-04-16T00:50:02.340Z,0.00
2019-04-16T00:51:02.337Z,0.00
2019-04-16T00:52:05.898Z,0.00
2019-04-16T00:53:02.339Z,0.00
2019-04-16T00:54:02.332Z,0.00
2019-04-16T00:55:02.343Z,0.00
2019-04-16T00:56:02.338Z,0.00
2019-04-16T00:57:02.433Z,0.00
2019-04-16T00:58:02.349Z,0.00
2019-04-16T00:59:02.368Z,0.00
2019-04-16T01:00:02.337Z,0.00
2019-04-16T01:01:02.389Z,0.00
2019-04-16T01:02:02.496Z,0.00
2019-04-16T01:03:02.318Z,0.00
2019-04-16T01:04:03.064Z,0.00
2019-04-16T01:05:02.358Z,0.00
2019-04-16T01:06:07.034Z,0.00
2019-04-16T01:07:02.498Z,0.00
2019-04-16T01:08:02.321Z,0.00
2019-04-16T01:09:02.333Z,0.00
2019-04-16T01:10:02.343Z,0.00
2019-04-16T01:11:02.365Z,0.00
2019-04-16T01:12:02.337Z,0.03
2019-04-16T01:13:02.342Z,0.00
2019-04-16T01:14:02.351Z,0.00
2019-04-16T01:15:02.329Z,0.00
2019-04-16T01:16:03.746Z,0.02
2019-04-16T01:17:05.095Z,0.70
2019-04-16T01:18:04.618Z,0.01
2019-04-16T01:19:02.353Z,0.00
2019-04-16T01:20:02.349Z,0.00
2019-04-16T01:21:02.423Z,0.00
2019-04-16T01:22:02.372Z,0.00
2019-04-16T01:23:02.371Z,0.00
2019-04-16T01:24:02.351Z,0.00
2019-04-16T01:25:02.369Z,0.00
2019-04-16T01:26:02.362Z,0.00
2019-04-16T01:27:02.352Z,0.00
2019-04-16T01:28:02.355Z,0.00
2019-04-16T01:29:03.720Z,0.24
2019-04-16T01:30:04.888Z,0.33
2019-04-16T01:31:06.918Z,0.31
2019-04-16T01:32:02.432Z,0.54
2019-04-16T01:33:02.352Z,0.55
2019-04-16T01:34:02.372Z,0.03
2019-04-16T01:35:02.393Z,0.56
2019-04-16T01:36:02.367Z,1.23
2019-04-16T01:37:02.369Z,0.79
2019-04-16T01:38:02.369Z,0.26
2019-04-16T01:39:16.264Z,0.16
2019-04-16T01:40:02.361Z,0.27
2019-04-16T01:41:02.402Z,0.01
2019-04-16T01:42:02.366Z,0.00
2019-04-16T01:43:02.357Z,0.00
2019-04-16T01:44:02.405Z,0.00
2019-04-16T01:45:02.373Z,0.00
2019-04-16T01:46:02.811Z,0.00
2019-04-16T01:47:04.277Z,0.00
2019-04-16T01:48:06.679Z,0.01
2019-04-16T01:49:02.365Z,1.00
2019-04-16T01:50:02.413Z,0.32
2019-04-16T01:51:02.353Z,0.00
2019-04-16T01:52:02.377Z,0.13
2019-04-16T01:53:02.458Z,0.43
2019-04-16T01:54:02.596Z,0.57
2019-04-16T01:55:02.608Z,0.57
2019-04-16T01:56:02.601Z,0.94
2019-04-16T01:57:02.381Z,0.87
2019-04-16T01:58:03.641Z,0.90
2019-04-16T01:59:05.462Z,1.26
2019-04-16T02:00:06.747Z,1.38
2019-04-16T02:01:02.395Z,1.72
2019-04-16T02:02:02.379Z,0.97
2019-04-16T02:03:02.382Z,0.80
2019-04-16T02:04:02.389Z,0.37
2019-04-16T02:05:02.410Z,0.02
2019-04-16T02:06:02.398Z,0.02
2019-04-16T02:07:02.377Z,0.00
2019-04-16T02:08:02.393Z,0.00
2019-04-16T02:09:03.251Z,0.00
2019-04-16T02:10:06.448Z,0.00
2019-04-16T02:11:02.417Z,0.00
2019-04-16T02:12:02.380Z,0.00
2019-04-16T02:13:02.641Z,0.00
2019-04-16T02:14:02.622Z,0.00
2019-04-16T02:15:02.625Z,0.00
2019-04-16T02:16:02.404Z,0.00
2019-04-16T02:17:02.393Z,0.00
2019-04-16T02:18:02.404Z,1.00
2019-04-16T02:19:02.688Z,1.66
2019-04-16T02:20:06.202Z,1.69
2019-04-16T02:21:02.382Z,1.30
2019-04-16T02:22:02.386Z,1.29
2019-04-16T02:23:02.405Z,1.20
2019-04-16T02:24:02.399Z,1.17
2019-04-16T02:25:02.378Z,0.89
2019-04-16T02:26:02.439Z,0.64
2019-04-16T02:27:02.388Z,0.65
2019-04-16T02:28:02.410Z,0.97
2019-04-16T02:29:02.402Z,0.89
2019-04-16T02:30:04.653Z,0.56
2019-04-16T02:31:02.584Z,0.14
2019-04-16T02:32:02.403Z,0.40
2019-04-16T02:33:02.516Z,1.15
2019-04-16T02:34:02.630Z,0.36
2019-04-16T02:35:02.715Z,0.22
2019-04-16T02:36:02.659Z,0.30
2019-04-16T02:37:03.211Z,0.65
2019-04-16T02:38:02.708Z,0.08
2019-04-16T02:39:02.388Z,0.00
2019-04-16T02:40:02.542Z,0.00
2019-04-16T02:41:02.427Z,0.00
2019-04-16T02:42:02.779Z,0.92
2019-04-16T02:43:06.503Z,1.73
2019-04-16T02:44:02.789Z,1.82
2019-04-16T02:45:02.413Z,1.42
2019-04-16T02:46:02.413Z,1.12
2019-04-16T02:47:06.196Z,0.72
2019-04-16T02:48:02.422Z,0.63
2019-04-16T02:49:02.415Z,0.13
2019-04-16T02:50:02.429Z,0.00
2019-04-16T02:51:07.335Z,0.00
2019-04-16T02:52:02.425Z,0.00
2019-04-16T02:53:02.459Z,0.07
2019-04-16T02:54:02.438Z,0.32
2019-04-16T02:55:08.140Z,0.34
2019-04-16T02:56:02.448Z,0.66
2019-04-16T02:57:02.575Z,0.17
2019-04-16T02:58:02.557Z,0.55
2019-04-16T02:59:09.791Z,1.01
2019-04-16T03:00:02.431Z,1.22
2019-04-16T03:01:02.447Z,1.15
2019-04-16T03:02:02.459Z,1.20
2019-04-16T03:03:02.414Z,1.73
2019-04-16T03:04:02.417Z,1.28
2019-04-16T03:05:02.439Z,1.50
2019-04-16T03:06:02.427Z,1.91
2019-04-16T03:07:03.334Z,2.11
2019-04-16T03:08:04.608Z,1.30
2019-04-16T03:09:02.417Z,1.50
2019-04-16T03:10:02.821Z,1.27
2019-04-16T03:11:02.448Z,1.57
2019-04-16T03:12:02.442Z,0.86
2019-04-16T03:13:02.417Z,1.41
2019-04-16T03:14:02.422Z,1.15
2019-04-16T03:15:02.820Z,1.64
2019-04-16T03:16:05.689Z,0.46
2019-04-16T03:17:02.436Z,0.03
2019-04-16T03:18:02.566Z,0.00
2019-04-16T03:19:02.453Z,0.27
2019-04-16T03:20:02.423Z,0.41
2019-04-16T03:21:02.497Z,0.08
2019-04-16T03:22:03.303Z,0.05
2019-04-16T03:23:05.645Z,0.00
2019-04-16T03:24:02.708Z,0.00
2019-04-16T03:25:02.585Z,0.06
2019-04-16T03:26:02.703Z,0.00
2019-04-16T03:27:04.602Z,0.00
2019-04-16T03:28:02.625Z,0.00
2019-04-16T03:29:02.435Z,0.26
2019-04-16T03:30:03.459Z,0.01
2019-04-16T03:31:07.480Z,0.39
2019-04-16T03:32:02.424Z,0.37
2019-04-16T03:33:10.282Z,0.10
2019-04-16T03:34:02.487Z,0.00
2019-04-16T03:35:02.448Z,0.00
2019-04-16T03:36:02.477Z,0.00
2019-04-16T03:37:03.037Z,0.00
2019-04-16T03:38:05.067Z,0.00
2019-04-16T03:39:02.439Z,0.00
2019-04-16T03:40:15.108Z,0.43
2019-04-16T03:41:02.472Z,0.17
2019-04-16T03:42:02.459Z,0.26
2019-04-16T03:43:04.138Z,0.51
2019-04-16T03:44:04.212Z,0.94
2019-04-16T03:45:02.457Z,0.27
2019-04-16T03:46:02.430Z,0.00
2019-04-16T03:47:02.477Z,0.00
2019-04-16T03:48:02.448Z,0.00
2019-04-16T03:49:02.443Z,0.00
2019-04-16T03:50:02.458Z,0.00
2019-04-16T03:51:03.509Z,0.00
2019-04-16T03:52:04.823Z,0.00
2019-04-16T03:53:02.511Z,0.00
2019-04-16T03:54:04.900Z,0.00
2019-04-16T03:55:02.430Z,0.00
2019-04-16T03:56:02.470Z,0.00
2019-04-16T03:57:02.867Z,0.00
2019-04-16T03:58:05.178Z,0.00
2019-04-16T03:59:02.445Z,0.00
2019-04-16T04:00:02.691Z,0.00
2019-04-16T04:01:02.462Z,0.00
2019-04-16T04:02:02.447Z,0.00
2019-04-16T04:03:02.445Z,0.00
2019-04-16T04:04:02.463Z,0.00
2019-04-16T04:05:06.389Z,0.00
2019-04-16T04:06:03.508Z,0.00
2019-04-16T04:07:02.450Z,0.00
2019-04-16T04:08:02.459Z,0.00
2019-04-16T04:09:02.456Z,0.00
2019-04-16T04:10:02.469Z,0.00
2019-04-16T04:11:02.464Z,0.00
2019-04-16T04:12:02.460Z,0.00
2019-04-16T04:13:04.883Z,1.08
2019-04-16T04:14:02.488Z,0.77
2019-04-16T04:15:02.449Z,0.57
2019-04-16T04:16:02.465Z,0.91
2019-04-16T04:17:05.459Z,1.09
2019-04-16T04:18:02.506Z,1.25
2019-04-16T04:19:02.464Z,1.18
2019-04-16T04:20:02.496Z,0.92
2019-04-16T04:21:02.474Z,0.87
2019-04-16T04:22:02.472Z,0.83
2019-04-16T04:23:02.518Z,0.68
2019-04-16T04:24:02.773Z,0.39
2019-04-16T04:25:04.269Z,1.21
2019-04-16T04:26:02.463Z,1.79
2019-04-16T04:27:02.462Z,1.58
2019-04-16T04:28:02.468Z,1.64
2019-04-16T04:29:05.949Z,1.35
2019-04-16T04:30:02.472Z,1.48
2019-04-16T04:31:02.485Z,1.43
2019-04-16T04:32:03.387Z,1.35
2019-04-16T04:33:07.449Z,0.92
2019-04-16T04:34:02.487Z,0.76
2019-04-16T04:35:02.470Z,0.47
2019-04-16T04:36:02.470Z,0.56
2019-04-16T04:37:02.486Z,0.48
2019-04-16T04:38:04.083Z,0.59
2019-04-16T04:39:02.466Z,0.08
2019-04-16T04:40:02.459Z,0.55
2019-04-16T04:41:02.506Z,0.55
2019-04-16T04:42:02.478Z,0.38
2019-04-16T04:43:02.450Z,0.35
2019-04-16T04:44:04.355Z,0.14
2019-04-16T04:45:02.461Z,0.15
2019-04-16T04:46:02.486Z,0.30
2019-04-16T04:47:02.517Z,0.06
2019-04-16T04:48:02.495Z,0.25
2019-04-16T04:49:02.502Z,0.10
2019-04-16T04:50:03.442Z,0.00
2019-04-16T04:51:06.892Z,0.23
2019-04-16T04:52:02.469Z,0.08
2019-04-16T04:53:02.519Z,0.00
2019-04-16T04:54:02.497Z,0.00
2019-04-16T04:55:02.486Z,0.00
2019-04-16T04:56:02.466Z,0.13
2019-04-16T04:57:02.479Z,0.06
2019-04-16T04:58:03.332Z,0.02
2019-04-16T04:59:05.137Z,0.43
2019-04-16T05:00:02.481Z,0.04
2019-04-16T05:01:02.478Z,0.00
2019-04-16T05:02:02.483Z,0.00
2019-04-16T05:03:02.467Z,0.00
2019-04-16T05:04:02.488Z,0.00
2019-04-16T05:05:02.502Z,0.00
2019-04-16T05:06:02.465Z,0.00
2019-04-16T05:07:04.695Z,0.00
2019-04-16T05:08:02.487Z,1.02
2019-04-16T05:09:02.487Z,1.47
2019-04-16T05:10:04.618Z,1.63
2019-04-16T05:11:02.979Z,0.73
2019-04-16T05:12:02.478Z,1.50
2019-04-16T05:13:02.503Z,0.57
2019-04-16T05:14:02.503Z,1.04
2019-04-16T05:15:04.011Z,1.68
2019-04-16T05:16:02.801Z,1.08
2019-04-16T05:17:03.633Z,1.43
2019-04-16T05:18:05.564Z,1.07
2019-04-16T05:19:02.517Z,1.27
2019-04-16T05:20:02.492Z,1.30
2019-04-16T05:21:02.491Z,1.05
2019-04-16T05:22:02.501Z,1.27
2019-04-16T05:23:02.513Z,1.57
2019-04-16T05:24:02.506Z,1.73
2019-04-16T05:25:02.769Z,1.82
2019-04-16T05:26:04.698Z,1.31
2019-04-16T05:27:02.503Z,1.81
2019-04-16T05:28:02.512Z,1.49
2019-04-16T05:29:02.507Z,1.37
2019-04-16T05:30:02.505Z,0.90
2019-04-16T05:31:02.515Z,1.11
2019-04-16T05:32:02.532Z,1.10
2019-04-16T05:33:05.430Z,1.06
2019-04-16T05:34:02.575Z,1.01
2019-04-16T05:35:02.533Z,0.90
2019-04-16T05:36:02.526Z,1.17
2019-04-16T05:37:02.498Z,1.64
2019-04-16T05:38:02.532Z,1.63
2019-04-16T05:39:03.767Z,1.75
2019-04-16T05:40:02.518Z,1.83
2019-04-16T05:41:13.150Z,1.83
2019-04-16T05:42:02.526Z,1.76
2019-04-16T05:43:02.513Z,1.77
2019-04-16T05:44:02.503Z,1.71
2019-04-16T05:45:05.313Z,1.73
2019-04-16T05:46:02.524Z,1.48
2019-04-16T05:47:02.539Z,1.69
2019-04-16T05:48:02.524Z,1.58
2019-04-16T05:49:02.522Z,0.93
2019-04-16T05:50:02.498Z,1.19
2019-04-16T05:51:02.511Z,2.00
2019-04-16T05:52:03.826Z,1.84
2019-04-16T05:53:02.513Z,1.66
2019-04-16T05:54:02.522Z,1.53
2019-04-16T05:55:02.527Z,2.01
2019-04-16T05:56:02.541Z,1.68
2019-04-16T05:57:02.501Z,1.49
2019-04-16T05:58:02.519Z,1.48
2019-04-16T05:59:03.256Z,0.91
2019-04-16T06:00:03.373Z,1.18
2019-04-16T06:01:02.564Z,0.93
2019-04-16T06:02:02.540Z,1.04
2019-04-16T06:03:02.525Z,1.26
2019-04-16T06:04:02.519Z,1.31
2019-04-16T06:05:02.530Z,0.97
2019-04-16T06:06:02.559Z,0.80
2019-04-16T06:07:03.697Z,1.26
2019-04-16T06:08:02.533Z,2.16
2019-04-16T06:09:02.510Z,1.74
2019-04-16T06:10:02.513Z,1.53
2019-04-16T06:11:02.546Z,1.39
2019-04-16T06:12:02.533Z,1.37
2019-04-16T06:13:02.528Z,0.88
2019-04-16T06:14:02.548Z,0.11
2019-04-16T06:15:02.515Z,0.63
2019-04-16T06:16:02.520Z,0.80
2019-04-16T06:17:02.535Z,1.07
2019-04-16T06:18:05.337Z,0.41
2019-04-16T06:19:02.520Z,1.07
2019-04-16T06:20:02.533Z,2.01
2019-04-16T06:21:02.539Z,1.74
2019-04-16T06:22:02.558Z,2.07
2019-04-16T06:23:02.594Z,1.14
2019-04-16T06:24:03.521Z,0.82
2019-04-16T06:25:08.436Z,0.88
2019-04-16T06:26:02.584Z,1.67
2019-04-16T06:27:02.510Z,0.88
2019-04-16T06:28:02.546Z,1.58
2019-04-16T06:29:02.564Z,0.95
2019-04-16T06:30:02.540Z,0.95
2019-04-16T06:31:05.291Z,0.28
2019-04-16T06:32:02.559Z,0.57
2019-04-16T06:33:02.528Z,1.31
2019-04-16T06:34:02.537Z,1.44
2019-04-16T06:35:02.581Z,1.55
2019-04-16T06:36:02.567Z,1.91
2019-04-16T06:37:02.531Z,1.57
2019-04-16T06:38:02.538Z,1.06
2019-04-16T06:39:02.522Z,1.77
2019-04-16T06:40:02.549Z,1.81
2019-04-16T06:41:03.329Z,1.32
2019-04-16T06:42:02.547Z,0.74
2019-04-16T06:43:02.860Z,0.24
2019-04-16T06:44:04.206Z,0.60
2019-04-16T06:45:04.952Z,1.04
2019-04-16T06:46:02.555Z,0.54
2019-04-16T06:47:02.574Z,1.30
2019-04-16T06:48:02.542Z,1.59
2019-04-16T06:49:02.537Z,1.72
2019-04-16T06:50:02.555Z,0.50
2019-04-16T06:51:02.551Z,1.36
2019-04-16T06:52:02.558Z,1.04
2019-04-16T06:53:02.596Z,0.63
2019-04-16T06:54:02.557Z,0.89
2019-04-16T06:55:03.575Z,1.02
2019-04-16T06:56:05.645Z,0.44
2019-04-16T06:57:02.541Z,0.73
2019-04-16T06:58:02.569Z,0.60
2019-04-16T06:59:02.587Z,0.56
2019-04-16T07:00:03.128Z,0.34
2019-04-16T07:01:05.888Z,0.51
2019-04-16T07:02:02.563Z,0.15
2019-04-16T07:03:03.029Z,0.35
2019-04-16T07:04:02.556Z,0.91
2019-04-16T07:05:02.575Z,0.97
2019-04-16T07:06:03.907Z,1.07
2019-04-16T07:07:07.842Z,0.64
2019-04-16T07:08:02.596Z,0.42
2019-04-16T07:09:02.540Z,0.20
2019-04-16T07:10:02.551Z,0.44
2019-04-16T07:11:02.576Z,0.22
2019-04-16T07:12:02.565Z,0.02
2019-04-16T07:13:02.548Z,0.09
2019-04-16T07:14:02.562Z,0.28
2019-04-16T07:15:02.546Z,0.17
2019-04-16T07:16:02.577Z,0.47
2019-04-16T07:17:02.605Z,0.48
2019-04-16T07:18:05.308Z,0.62
2019-04-16T07:19:02.566Z,0.81
2019-04-16T07:20:04.618Z,0.51
2019-04-16T07:21:02.555Z,1.58
2019-04-16T07:22:02.582Z,1.62
2019-04-16T07:23:02.569Z,0.88
2019-04-16T07:24:02.622Z,1.30
2019-04-16T07:25:04.490Z,1.55
2019-04-16T07:26:03.861Z,1.49
2019-04-16T07:27:02.564Z,1.19
2019-04-16T07:28:02.581Z,1.73
2019-04-16T07:29:02.609Z,1.97
2019-04-16T07:30:06.762Z,0.86
2019-04-16T07:31:02.859Z,0.64
2019-04-16T07:32:03.050Z,0.63
2019-04-16T07:33:02.587Z,0.92
2019-04-16T07:34:02.584Z,0.89
2019-04-16T07:35:02.587Z,1.92
2019-04-16T07:36:02.595Z,1.37
2019-04-16T07:37:02.591Z,1.78
2019-04-16T07:38:05.773Z,2.12
2019-04-16T07:39:05.363Z,1.00
2019-04-16T07:40:02.600Z,1.41
2019-04-16T07:41:02.620Z,1.38
2019-04-16T07:42:10.554Z,1.31
2019-04-16T07:43:02.580Z,1.06
2019-04-16T07:44:08.148Z,1.94
2019-04-16T07:45:02.589Z,0.81
2019-04-16T07:46:02.621Z,0.89
2019-04-16T07:47:02.593Z,1.06
2019-04-16T07:48:05.903Z,1.45
2019-04-16T07:49:02.589Z,1.59
2019-04-16T07:50:02.620Z,2.08
2019-04-16T07:51:04.850Z,1.84
2019-04-16T07:52:06.959Z,0.65
2019-04-16T07:53:02.639Z,1.35
2019-04-16T07:54:03.169Z,1.60
2019-04-16T07:55:02.614Z,1.61
2019-04-16T07:56:02.584Z,1.68
2019-04-16T07:57:02.594Z,1.74
2019-04-16T07:58:02.773Z,2.05
2019-04-16T07:59:02.695Z,2.05
2019-04-16T08:00:02.608Z,0.97
2019-04-16T08:01:02.603Z,1.65
2019-04-16T08:02:02.625Z,0.94
2019-04-16T08:03:02.699Z,0.58
2019-04-16T08:04:03.261Z,1.27
2019-04-16T08:05:07.754Z,1.03
2019-04-16T08:06:02.613Z,1.12
2019-04-16T08:07:02.598Z,2.50
2019-04-16T08:08:02.857Z,1.31
2019-04-16T08:09:02.587Z,1.32
2019-04-16T08:10:03.321Z,2.11
2019-04-16T08:11:02.644Z,0.96
2019-04-16T08:12:02.696Z,3.03
2019-04-16T08:13:02.612Z,1.25
2019-04-16T08:14:02.790Z,0.70
2019-04-16T08:15:13.371Z,1.72
2019-04-16T08:16:02.618Z,1.36
2019-04-16T08:17:02.641Z,2.07
2019-04-16T08:18:02.801Z,1.38
2019-04-16T08:19:02.620Z,2.23
2019-04-16T08:20:02.665Z,1.90
2019-04-16T08:21:10.120Z,0.93
2019-04-16T08:22:02.617Z,1.88
2019-04-16T08:23:02.638Z,2.19
2019-04-16T08:24:02.626Z,1.77
2019-04-16T08:25:03.917Z,1.16
2019-04-16T08:26:04.336Z,2.06
2019-04-16T08:27:02.611Z,1.72
2019-04-16T08:28:02.621Z,2.57
2019-04-16T08:29:02.646Z,2.25
2019-04-16T08:30:04.134Z,1.96
2019-04-16T08:31:02.617Z,2.16
2019-04-16T08:32:02.634Z,2.54
2019-04-16T08:33:02.628Z,2.45
2019-04-16T08:34:02.632Z,2.00
2019-04-16T08:35:02.678Z,2.08
2019-04-16T08:36:02.625Z,2.05
2019-04-16T08:37:02.633Z,2.88
2019-04-16T08:38:02.623Z,2.53
2019-04-16T08:39:05.911Z,4.89
2019-04-16T08:40:02.633Z,5.33
2019-04-16T08:41:02.916Z,1.18
2019-04-16T08:42:02.650Z,1.11
2019-04-16T08:43:02.667Z,1.34
2019-04-16T08:44:03.815Z,2.34
2019-04-16T08:45:07.604Z,0.95
2019-04-16T08:46:02.652Z,1.93
2019-04-16T08:47:03.036Z,1.17
2019-04-16T08:48:02.672Z,1.62
2019-04-16T08:49:02.645Z,0.74
2019-04-16T08:50:02.668Z,0.18
2019-04-16T08:51:04.747Z,0.99
2019-04-16T08:52:02.829Z,2.08
2019-04-16T08:53:02.699Z,3.76
2019-04-16T08:54:02.654Z,3.66
2019-04-16T08:55:02.658Z,1.47
2019-04-16T08:56:02.640Z,1.18
2019-04-16T08:57:02.763Z,2.67
2019-04-16T08:58:06.055Z,2.76
2019-04-16T08:59:02.701Z,2.80
2019-04-16T09:00:02.652Z,2.99
2019-04-16T09:01:02.743Z,2.60
2019-04-16T09:02:02.668Z,2.40
2019-04-16T09:03:02.642Z,2.34
2019-04-16T09:04:03.087Z,2.08
2019-04-16T09:05:05.979Z,3.22
2019-04-16T09:06:04.298Z,3.39
2019-04-16T09:07:11.123Z,3.05
2019-04-16T09:08:12.144Z,2.27
2019-04-16T09:09:12.720Z,3.08
2019-04-16T09:10:16.168Z,3.39
2019-04-16T09:11:03.346Z,2.98
2019-04-16T09:12:07.999Z,2.75
2019-04-16T09:13:04.609Z,3.93
2019-04-16T09:14:02.677Z,3.01
2019-04-16T09:15:02.667Z,1.83
2019-04-16T09:16:02.656Z,1.89
2019-04-16T09:17:02.680Z,1.26
2019-04-16T09:18:02.676Z,1.57
2019-04-16T09:19:02.684Z,1.91
2019-04-16T09:20:05.148Z,1.77
2019-04-16T09:21:02.662Z,2.33
2019-04-16T09:22:02.666Z,2.77
2019-04-16T09:23:02.692Z,2.29
2019-04-16T09:24:08.567Z,2.85
2019-04-16T09:25:02.682Z,2.63
2019-04-16T09:26:13.616Z,2.21
2019-04-16T09:27:02.658Z,2.14
2019-04-16T09:28:02.690Z,3.36
2019-04-16T09:29:08.515Z,2.76
2019-04-16T09:30:02.683Z,2.48
2019-04-16T09:31:02.719Z,1.95
2019-04-16T09:32:02.696Z,2.22
2019-04-16T09:33:02.673Z,3.03
2019-04-16T09:34:05.754Z,3.51
2019-04-16T09:35:10.084Z,3.38
2019-04-16T09:36:02.676Z,2.36
2019-04-16T09:37:02.701Z,1.01
2019-04-16T09:38:02.697Z,2.66
2019-04-16T09:39:02.663Z,4.40
2019-04-16T09:40:15.592Z,4.26
2019-04-16T09:41:02.746Z,4.05
2019-04-16T09:42:02.773Z,2.57
2019-04-16T09:43:15.803Z,1.25
2019-04-16T09:44:02.738Z,2.38
2019-04-16T09:45:05.060Z,1.21
2019-04-16T09:46:10.381Z,1.45
2019-04-16T09:47:05.210Z,0.81
2019-04-16T09:48:03.773Z,2.12
2019-04-16T09:49:04.733Z,2.05
2019-04-16T09:50:02.687Z,2.79
2019-04-16T09:51:02.687Z,1.48
2019-04-16T09:52:03.950Z,2.09
2019-04-16T09:53:03.090Z,1.99
2019-04-16T09:54:02.695Z,1.86
2019-04-16T09:55:02.711Z,1.05
2019-04-16T09:56:02.741Z,1.75
2019-04-16T09:57:02.721Z,1.42
2019-04-16T09:58:06.066Z,1.21
2019-04-16T09:59:02.772Z,1.73
2019-04-16T10:00:02.689Z,1.27
2019-04-16T10:01:02.692Z,2.18
2019-04-16T10:02:02.746Z,1.54
2019-04-16T10:03:02.695Z,1.77
2019-04-16T10:04:02.719Z,2.34
2019-04-16T10:05:02.716Z,1.97
2019-04-16T10:06:05.279Z,2.60
2019-04-16T10:07:02.737Z,1.52
2019-04-16T10:08:02.761Z,1.28
2019-04-16T10:09:02.702Z,1.32
2019-04-16T10:10:02.728Z,1.42
2019-04-16T10:11:05.770Z,1.67
2019-04-16T10:12:05.036Z,1.17
2019-04-16T10:13:02.737Z,0.73
2019-04-16T10:14:02.741Z,1.02
2019-04-16T10:15:02.756Z,1.54
2019-04-16T10:16:02.756Z,1.98
2019-04-16T10:17:02.775Z,2.98
2019-04-16T10:18:02.715Z,1.09
2019-04-16T10:19:07.897Z,1.17
2019-04-16T10:20:02.758Z,1.09
2019-04-16T10:21:02.732Z,1.92
2019-04-16T10:22:02.734Z,3.00
2019-04-16T10:23:02.781Z,2.41
2019-04-16T10:24:02.731Z,1.36
2019-04-16T10:25:02.749Z,1.28
2019-04-16T10:26:02.773Z,1.47
2019-04-16T10:27:04.361Z,1.54
2019-04-16T10:28:04.960Z,2.16
2019-04-16T10:29:05.817Z,3.12
2019-04-16T10:30:02.727Z,1.68
2019-04-16T10:31:02.739Z,1.72
2019-04-16T10:32:02.788Z,3.02
2019-04-16T10:33:02.718Z,2.57
2019-04-16T10:34:02.786Z,2.71
2019-04-16T10:35:02.755Z,2.51
2019-04-16T10:36:04.807Z,2.26
2019-04-16T10:37:02.750Z,1.18
2019-04-16T10:38:02.772Z,1.58
2019-04-16T10:39:02.766Z,1.94
2019-04-16T10:40:04.893Z,2.06
2019-04-16T10:41:02.804Z,2.86
2019-04-16T10:42:02.725Z,0.91
2019-04-16T10:43:02.769Z,1.30
2019-04-16T10:44:02.747Z,2.01
2019-04-16T10:45:02.770Z,1.51
2019-04-16T10:46:02.818Z,1.17
2019-04-16T10:47:02.770Z,3.67
2019-04-16T10:48:02.756Z,4.70
2019-04-16T10:49:02.715Z,5.17
2019-04-16T10:50:02.787Z,4.70
2019-04-16T10:51:02.732Z,2.56
2019-04-16T10:52:02.787Z,2.21
2019-04-16T10:53:02.813Z,2.65
2019-04-16T10:54:02.737Z,1.76
2019-04-16T10:55:02.795Z,1.09
2019-04-16T10:56:02.798Z,2.58
2019-04-16T10:57:02.783Z,1.67
2019-04-16T10:58:02.775Z,3.64
2019-04-16T10:59:02.820Z,2.65
2019-04-16T11:00:02.749Z,2.75
2019-04-16T11:01:02.775Z,0.85
2019-04-16T11:02:02.869Z,1.73
2019-04-16T11:03:02.760Z,1.77
2019-04-16T11:04:04.833Z,3.04
2019-04-16T11:05:03.236Z,2.99
2019-04-16T11:06:02.767Z,2.64
2019-04-16T11:07:02.798Z,2.25
2019-04-16T11:08:04.345Z,3.74
2019-04-16T11:09:02.770Z,3.07
2019-04-16T11:10:02.803Z,4.22
2019-04-16T11:11:02.876Z,2.23
2019-04-16T11:12:05.405Z,1.82
2019-04-16T11:13:02.785Z,1.24
2019-04-16T11:14:02.811Z,3.46
2019-04-16T11:15:02.780Z,2.34
2019-04-16T11:16:02.791Z,0.93
2019-04-16T11:17:02.827Z,1.54
2019-04-16T11:18:02.788Z,1.72
2019-04-16T11:19:02.963Z,2.64
2019-04-16T11:20:03.179Z,1.84
2019-04-16T11:21:02.960Z,0.30
2019-04-16T11:22:03.914Z,2.12
2019-04-16T11:23:03.289Z,1.23
2019-04-16T11:24:03.087Z,3.27
2019-04-16T11:25:03.087Z,4.33
2019-04-16T11:26:02.775Z,2.66
2019-04-16T11:27:02.782Z,1.18
2019-04-16T11:28:02.814Z,3.42
2019-04-16T11:29:02.880Z,2.39
2019-04-16T11:30:02.899Z,1.90
2019-04-16T11:31:03.062Z,3.34
2019-04-16T11:32:03.031Z,2.40
2019-04-16T11:33:03.116Z,2.11
2019-04-16T11:34:03.001Z,0.50
2019-04-16T11:35:03.040Z,2.42
2019-04-16T11:36:17.415Z,2.04
2019-04-16T11:37:07.412Z,5.42
2019-04-16T11:38:03.010Z,2.20
2019-04-16T11:39:02.835Z,1.72
2019-04-16T11:40:03.188Z,2.21
2019-04-16T11:41:02.810Z,2.43
2019-04-16T11:42:02.793Z,1.05
2019-04-16T11:43:03.154Z,1.21
2019-04-16T11:44:14.264Z,1.67
2019-04-16T11:45:02.810Z,1.54
2019-04-16T11:46:03.055Z,2.05
2019-04-16T11:47:02.872Z,1.16
2019-04-16T11:48:03.013Z,0.49
2019-04-16T11:49:03.278Z,2.00
2019-04-16T11:50:02.838Z,3.60
2019-04-16T11:51:02.815Z,2.44
2019-04-16T11:52:02.927Z,3.00
2019-04-16T11:53:03.102Z,1.64
2019-04-16T11:54:03.091Z,3.26
2019-04-16T11:55:02.895Z,2.44
2019-04-16T11:56:02.902Z,2.14
2019-04-16T11:57:03.000Z,1.71
2019-04-16T11:58:02.837Z,1.26
2019-04-16T11:59:02.857Z,1.35
2019-04-16T12:00:07.714Z,0.62
2019-04-16T12:01:02.848Z,1.93
2019-04-16T12:02:02.927Z,1.67
2019-04-16T12:03:02.843Z,2.27
2019-04-16T12:04:02.872Z,3.35
2019-04-16T12:05:02.851Z,3.87
2019-04-16T12:06:02.830Z,2.09
2019-04-16T12:07:05.624Z,0.93
2019-04-16T12:08:02.871Z,2.11
2019-04-16T12:09:02.874Z,2.44
2019-04-16T12:10:02.857Z,2.22
2019-04-16T12:11:02.870Z,1.77
2019-04-16T12:12:02.845Z,0.85
2019-04-16T12:13:03.965Z,0.81
2019-04-16T12:14:04.224Z,2.07
2019-04-16T12:15:02.831Z,3.54
2019-04-16T12:16:02.868Z,3.18
2019-04-16T12:17:02.855Z,1.97
2019-04-16T12:18:02.833Z,0.45
2019-04-16T12:19:02.878Z,1.63
2019-04-16T12:20:02.946Z,1.51
2019-04-16T12:21:02.879Z,3.12
2019-04-16T12:22:02.885Z,3.23
2019-04-16T12:23:02.890Z,3.24
2019-04-16T12:24:02.890Z,1.43
2019-04-16T12:25:02.839Z,1.26
2019-04-16T12:26:02.853Z,3.76
2019-04-16T12:27:03.102Z,1.89
2019-04-16T12:28:06.525Z,1.53
2019-04-16T12:29:02.895Z,1.16
2019-04-16T12:30:02.881Z,1.84
2019-04-16T12:31:02.844Z,1.15
2019-04-16T12:32:04.338Z,1.29
2019-04-16T12:33:07.721Z,0.84
2019-04-16T12:34:02.896Z,1.64
2019-04-16T12:35:02.881Z,2.78
2019-04-16T12:36:02.928Z,1.37
2019-04-16T12:37:02.891Z,2.13
2019-04-16T12:38:02.872Z,1.94
2019-04-16T12:39:03.014Z,2.12
2019-04-16T12:40:02.932Z,1.54
2019-04-16T12:41:02.873Z,1.63
2019-04-16T12:42:02.879Z,2.07
2019-04-16T12:43:02.873Z,2.58
2019-04-16T12:44:02.924Z,1.95
2019-04-16T12:45:02.855Z,1.88
2019-04-16T12:46:02.885Z,4.10
2019-04-16T12:47:02.920Z,2.15
2019-04-16T12:48:02.903Z,1.85
2019-04-16T12:49:02.880Z,1.50
2019-04-16T12:50:02.926Z,1.01
2019-04-16T12:51:02.858Z,0.49
2019-04-16T12:52:03.152Z,0.52
2019-04-16T12:53:02.945Z,2.36
2019-04-16T12:54:02.904Z,2.34
2019-04-16T12:55:02.915Z,1.68
2019-04-16T12:56:07.448Z,1.24
2019-04-16T12:57:03.151Z,1.93
2019-04-16T12:58:02.916Z,3.95
2019-04-16T12:59:02.919Z,3.65
2019-04-16T13:00:02.960Z,2.28
2019-04-16T13:01:04.577Z,2.17
2019-04-16T13:02:02.903Z,2.76
2019-04-16T13:03:02.896Z,1.55
2019-04-16T13:04:02.927Z,1.34
2019-04-16T13:05:02.908Z,1.41
2019-04-16T13:06:02.944Z,2.28
2019-04-16T13:07:02.885Z,1.53
2019-04-16T13:08:02.896Z,2.13
2019-04-16T13:09:02.885Z,1.73
2019-04-16T13:10:02.904Z,2.05
2019-04-16T13:11:02.924Z,1.54
2019-04-16T13:12:08.181Z,1.89
2019-04-16T13:13:02.916Z,1.25
2019-04-16T13:14:02.920Z,1.01
2019-04-16T13:15:02.891Z,1.49
2019-04-16T13:16:03.103Z,0.70
2019-04-16T13:17:02.939Z,2.07
2019-04-16T13:18:02.895Z,2.51